sensor_id;sensor_type;location;lat;lon;timestamp;P1;durP1;ratioP1;P2;durP2;ratioP2
26806;SDS011;14380;49.910;6.792;2022-08-19T00:00:30;14.05;;;12.23;;
26806;SDS011;14380;49.910;6.792;2022-08-19T00:02:57;12.10;;;10.90;;
26806;SDS011;14380;49.910;6.792;2022-08-19T00:05:23;12.73;;;11.48;;
26806;SDS011;14380;49.910;6.792;2022-08-19T00:07:50;12.27;;;11.05;;
26806;SDS011;14380;49.910;6.792;2022-08-19T00:10:17;14.00;;;11.23;;
26806;SDS011;14380;49.910;6.792;2022-08-19T00:12:45;15.00;;;11.63;;
26806;SDS011;14380;49.910;6.792;2022-08-19T00:15:14;12.13;;;10.93;;
26806;SDS011;14380;49.910;6.792;2022-08-19T00:17:43;14.60;;;11.50;;
26806;SDS011;14380;49.910;6.792;2022-08-19T00:20:12;12.32;;;11.23;;
26806;SDS011;14380;49.910;6.792;2022-08-19T00:22:42;13.07;;;11.60;;
26806;SDS011;14380;49.910;6.792;2022-08-19T00:25:09;13.30;;;12.00;;
26806;SDS011;14380;49.910;6.792;2022-08-19T00:27:36;16.08;;;11.98;;
26806;SDS011;14380;49.910;6.792;2022-08-19T00:30:04;15.30;;;12.00;;
26806;SDS011;14380;49.910;6.792;2022-08-19T00:32:33;12.60;;;10.88;;
26806;SDS011;14380;49.910;6.792;2022-08-19T00:35:00;13.18;;;11.88;;
26806;SDS011;14380;49.910;6.792;2022-08-19T00:37:27;11.23;;;10.23;;
26806;SDS011;14380;49.910;6.792;2022-08-19T00:39:54;12.02;;;10.80;;
26806;SDS011;14380;49.910;6.792;2022-08-19T00:42:21;11.85;;;10.75;;
26806;SDS011;14380;49.910;6.792;2022-08-19T00:44:49;11.30;;;10.20;;
26806;SDS011;14380;49.910;6.792;2022-08-19T00:47:16;11.13;;;10.10;;
26806;SDS011;14380;49.910;6.792;2022-08-19T00:49:45;11.82;;;10.30;;
26806;SDS011;14380;49.910;6.792;2022-08-19T00:52:17;13.30;;;10.75;;
26806;SDS011;14380;49.910;6.792;2022-08-19T00:54:47;12.65;;;10.38;;
26806;SDS011;14380;49.910;6.792;2022-08-19T00:57:15;11.10;;;10.00;;
26806;SDS011;14380;49.910;6.792;2022-08-19T00:59:46;11.52;;;10.43;;
26806;SDS011;14380;49.910;6.792;2022-08-19T01:02:17;12.93;;;10.32;;
26806;SDS011;14380;49.910;6.792;2022-08-19T01:04:46;11.38;;;10.07;;
26806;SDS011;14380;49.910;6.792;2022-08-19T01:07:12;11.70;;;10.25;;
26806;SDS011;14380;49.910;6.792;2022-08-19T01:09:39;10.80;;;9.90;;
26806;SDS011;14380;49.910;6.792;2022-08-19T01:12:06;10.65;;;9.48;;
26806;SDS011;14380;49.910;6.792;2022-08-19T01:14:33;11.80;;;9.55;;
26806;SDS011;14380;49.910;6.792;2022-08-19T01:17:01;10.80;;;9.73;;
26806;SDS011;14380;49.910;6.792;2022-08-19T01:19:28;13.10;;;10.32;;
26806;SDS011;14380;49.910;6.792;2022-08-19T01:22:00;11.52;;;10.50;;
26806;SDS011;14380;49.910;6.792;2022-08-19T01:24:33;10.38;;;9.18;;
26806;SDS011;14380;49.910;6.792;2022-08-19T01:27:00;12.93;;;11.02;;
26806;SDS011;14380;49.910;6.792;2022-08-19T01:29:30;14.88;;;11.48;;
26806;SDS011;14380;49.910;6.792;2022-08-19T01:31:57;12.20;;;11.10;;
26806;SDS011;14380;49.910;6.792;2022-08-19T01:34:25;12.60;;;11.43;;
26806;SDS011;14380;49.910;6.792;2022-08-19T01:36:52;13.32;;;11.98;;
26806;SDS011;14380;49.910;6.792;2022-08-19T01:39:20;13.05;;;11.13;;
26806;SDS011;14380;49.910;6.792;2022-08-19T01:41:52;14.95;;;11.18;;
26806;SDS011;14380;49.910;6.792;2022-08-19T01:44:20;12.30;;;10.88;;
26806;SDS011;14380;49.910;6.792;2022-08-19T01:46:49;11.32;;;10.15;;
26806;SDS011;14380;49.910;6.792;2022-08-19T01:49:17;10.68;;;9.77;;
26806;SDS011;14380;49.910;6.792;2022-08-19T01:51:46;11.80;;;10.35;;
26806;SDS011;14380;49.910;6.792;2022-08-19T01:54:14;11.00;;;9.90;;
26806;SDS011;14380;49.910;6.792;2022-08-19T01:56:43;10.88;;;9.88;;
26806;SDS011;14380;49.910;6.792;2022-08-19T01:59:12;11.23;;;10.15;;
26806;SDS011;14380;49.910;6.792;2022-08-19T02:01:40;11.10;;;10.10;;
26806;SDS011;14380;49.910;6.792;2022-08-19T02:04:07;11.65;;;10.45;;
26806;SDS011;14380;49.910;6.792;2022-08-19T02:06:34;10.95;;;9.75;;
26806;SDS011;14380;49.910;6.792;2022-08-19T02:09:01;11.48;;;10.48;;
26806;SDS011;14380;49.910;6.792;2022-08-19T02:11:29;11.65;;;10.48;;
26806;SDS011;14380;49.910;6.792;2022-08-19T02:14:00;11.57;;;10.48;;
26806;SDS011;14380;49.910;6.792;2022-08-19T02:16:29;12.63;;;10.45;;
26806;SDS011;14380;49.910;6.792;2022-08-19T02:18:57;11.93;;;10.23;;
26806;SDS011;14380;49.910;6.792;2022-08-19T02:21:25;10.60;;;9.60;;
26806;SDS011;14380;49.910;6.792;2022-08-19T02:23:53;11.45;;;10.30;;
26806;SDS011;14380;49.910;6.792;2022-08-19T02:26:20;10.40;;;9.48;;
26806;SDS011;14380;49.910;6.792;2022-08-19T02:28:47;11.52;;;10.45;;
26806;SDS011;14380;49.910;6.792;2022-08-19T02:31:15;11.02;;;9.63;;
26806;SDS011;14380;49.910;6.792;2022-08-19T02:33:45;10.77;;;9.70;;
26806;SDS011;14380;49.910;6.792;2022-08-19T02:36:13;11.55;;;10.35;;
26806;SDS011;14380;49.910;6.792;2022-08-19T02:38:42;10.90;;;9.90;;
26806;SDS011;14380;49.910;6.792;2022-08-19T02:41:11;13.90;;;10.45;;
26806;SDS011;14380;49.910;6.792;2022-08-19T02:43:41;13.10;;;11.40;;
26806;SDS011;14380;49.910;6.792;2022-08-19T02:46:11;12.55;;;11.40;;
26806;SDS011;14380;49.910;6.792;2022-08-19T02:48:39;11.90;;;10.70;;
26806;SDS011;14380;49.910;6.792;2022-08-19T02:51:07;10.43;;;9.52;;
26806;SDS011;14380;49.910;6.792;2022-08-19T02:53:34;11.40;;;10.18;;
26806;SDS011;14380;49.910;6.792;2022-08-19T02:56:05;11.13;;;10.13;;
26806;SDS011;14380;49.910;6.792;2022-08-19T02:58:32;10.85;;;9.85;;
26806;SDS011;14380;49.910;6.792;2022-08-19T03:00:59;11.40;;;10.30;;
26806;SDS011;14380;49.910;6.792;2022-08-19T03:03:26;13.73;;;11.85;;
26806;SDS011;14380;49.910;6.792;2022-08-19T03:06:02;10.80;;;9.70;;
26806;SDS011;14380;49.910;6.792;2022-08-19T03:08:32;12.45;;;11.25;;
26806;SDS011;14380;49.910;6.792;2022-08-19T03:10:58;11.13;;;10.00;;
26806;SDS011;14380;49.910;6.792;2022-08-19T03:13:25;11.18;;;10.00;;
26806;SDS011;14380;49.910;6.792;2022-08-19T03:15:53;11.18;;;10.00;;
26806;SDS011;14380;49.910;6.792;2022-08-19T03:18:19;10.68;;;9.77;;
26806;SDS011;14380;49.910;6.792;2022-08-19T03:20:47;12.70;;;11.40;;
26806;SDS011;14380;49.910;6.792;2022-08-19T03:23:17;11.75;;;10.27;;
26806;SDS011;14380;49.910;6.792;2022-08-19T03:25:46;11.50;;;10.35;;
26806;SDS011;14380;49.910;6.792;2022-08-19T03:28:15;10.90;;;9.32;;
26806;SDS011;14380;49.910;6.792;2022-08-19T03:30:42;11.07;;;10.07;;
26806;SDS011;14380;49.910;6.792;2022-08-19T03:33:21;14.10;;;10.45;;
26806;SDS011;14380;49.910;6.792;2022-08-19T03:35:58;12.70;;;11.45;;
26806;SDS011;14380;49.910;6.792;2022-08-19T03:38:26;11.90;;;10.70;;
26806;SDS011;14380;49.910;6.792;2022-08-19T03:40:54;12.50;;;11.35;;
26806;SDS011;14380;49.910;6.792;2022-08-19T03:43:21;11.75;;;10.48;;
26806;SDS011;14380;49.910;6.792;2022-08-19T03:45:47;10.88;;;9.77;;
26806;SDS011;14380;49.910;6.792;2022-08-19T03:48:16;12.45;;;11.35;;
26806;SDS011;14380;49.910;6.792;2022-08-19T03:50:42;13.63;;;12.32;;
26806;SDS011;14380;49.910;6.792;2022-08-19T03:53:09;13.32;;;12.13;;
26806;SDS011;14380;49.910;6.792;2022-08-19T03:55:38;13.23;;;11.48;;
26806;SDS011;14380;49.910;6.792;2022-08-19T03:58:08;15.55;;;10.65;;
26806;SDS011;14380;49.910;6.792;2022-08-19T04:00:36;12.95;;;11.75;;
26806;SDS011;14380;49.910;6.792;2022-08-19T04:03:02;13.20;;;11.93;;
26806;SDS011;14380;49.910;6.792;2022-08-19T04:05:29;12.05;;;10.85;;
26806;SDS011;14380;49.910;6.792;2022-08-19T04:07:56;12.50;;;11.20;;
26806;SDS011;14380;49.910;6.792;2022-08-19T04:10:23;11.70;;;10.50;;
26806;SDS011;14380;49.910;6.792;2022-08-19T04:12:50;12.55;;;11.27;;
26806;SDS011;14380;49.910;6.792;2022-08-19T04:15:18;11.75;;;10.68;;
26806;SDS011;14380;49.910;6.792;2022-08-19T04:17:45;12.63;;;11.43;;
26806;SDS011;14380;49.910;6.792;2022-08-19T04:20:12;12.93;;;11.73;;
26806;SDS011;14380;49.910;6.792;2022-08-19T04:22:39;14.57;;;12.98;;
26806;SDS011;14380;49.910;6.792;2022-08-19T04:25:06;15.07;;;12.43;;
26806;SDS011;14380;49.910;6.792;2022-08-19T04:27:33;14.50;;;12.20;;
26806;SDS011;14380;49.910;6.792;2022-08-19T04:30:00;12.55;;;11.25;;
26806;SDS011;14380;49.910;6.792;2022-08-19T04:32:28;13.93;;;12.45;;
26806;SDS011;14380;49.910;6.792;2022-08-19T04:34:56;12.80;;;11.65;;
26806;SDS011;14380;49.910;6.792;2022-08-19T04:37:23;12.88;;;11.57;;
26806;SDS011;14380;49.910;6.792;2022-08-19T04:39:51;12.48;;;11.30;;
26806;SDS011;14380;49.910;6.792;2022-08-19T04:42:35;13.52;;;11.43;;
26806;SDS011;14380;49.910;6.792;2022-08-19T04:45:05;14.02;;;12.60;;
26806;SDS011;14380;49.910;6.792;2022-08-19T04:47:36;13.60;;;12.20;;
26806;SDS011;14380;49.910;6.792;2022-08-19T04:50:03;13.82;;;12.38;;
26806;SDS011;14380;49.910;6.792;2022-08-19T04:52:31;13.23;;;11.48;;
26806;SDS011;14380;49.910;6.792;2022-08-19T04:54:58;12.20;;;11.00;;
26806;SDS011;14380;49.910;6.792;2022-08-19T04:57:25;13.55;;;12.15;;
26806;SDS011;14380;49.910;6.792;2022-08-19T04:59:53;13.15;;;11.93;;
26806;SDS011;14380;49.910;6.792;2022-08-19T05:02:20;13.43;;;12.23;;
26806;SDS011;14380;49.910;6.792;2022-08-19T05:04:49;12.70;;;11.60;;
26806;SDS011;14380;49.910;6.792;2022-08-19T05:07:16;12.25;;;11.18;;
26806;SDS011;14380;49.910;6.792;2022-08-19T05:09:42;13.43;;;11.43;;
26806;SDS011;14380;49.910;6.792;2022-08-19T05:12:09;13.48;;;11.27;;
26806;SDS011;14380;49.910;6.792;2022-08-19T05:14:36;12.27;;;11.23;;
26806;SDS011;14380;49.910;6.792;2022-08-19T05:17:03;12.15;;;11.05;;
26806;SDS011;14380;49.910;6.792;2022-08-19T05:19:29;13.57;;;12.30;;
26806;SDS011;14380;49.910;6.792;2022-08-19T05:22:15;12.27;;;11.18;;
26806;SDS011;14380;49.910;6.792;2022-08-19T05:25:02;12.63;;;11.43;;
26806;SDS011;14380;49.910;6.792;2022-08-19T05:27:32;11.75;;;10.65;;
26806;SDS011;14380;49.910;6.792;2022-08-19T05:29:59;12.45;;;11.02;;
26806;SDS011;14380;49.910;6.792;2022-08-19T05:32:27;11.52;;;10.43;;
26806;SDS011;14380;49.910;6.792;2022-08-19T05:34:54;11.45;;;10.35;;
26806;SDS011;14380;49.910;6.792;2022-08-19T05:37:22;14.80;;;10.50;;
26806;SDS011;14380;49.910;6.792;2022-08-19T05:39:51;10.70;;;9.65;;
26806;SDS011;14380;49.910;6.792;2022-08-19T05:42:19;10.82;;;9.80;;
26806;SDS011;14380;49.910;6.792;2022-08-19T05:44:47;11.25;;;10.15;;
26806;SDS011;14380;49.910;6.792;2022-08-19T05:47:15;11.65;;;10.60;;
26806;SDS011;14380;49.910;6.792;2022-08-19T05:49:44;10.27;;;9.40;;
26806;SDS011;14380;49.910;6.792;2022-08-19T05:52:13;15.05;;;10.30;;
26806;SDS011;14380;49.910;6.792;2022-08-19T05:54:43;12.15;;;10.95;;
26806;SDS011;14380;49.910;6.792;2022-08-19T05:57:12;11.85;;;10.75;;
26806;SDS011;14380;49.910;6.792;2022-08-19T05:59:40;12.13;;;10.93;;
26806;SDS011;14380;49.910;6.792;2022-08-19T06:02:07;12.50;;;11.20;;
26806;SDS011;14380;49.910;6.792;2022-08-19T06:04:34;13.80;;;10.88;;
26806;SDS011;14380;49.910;6.792;2022-08-19T06:07:00;12.32;;;11.02;;
26806;SDS011;14380;49.910;6.792;2022-08-19T06:09:27;11.45;;;10.35;;
26806;SDS011;14380;49.910;6.792;2022-08-19T06:11:57;12.90;;;11.65;;
26806;SDS011;14380;49.910;6.792;2022-08-19T06:14:26;15.45;;;14.00;;
26806;SDS011;14380;49.910;6.792;2022-08-19T06:16:54;17.50;;;14.18;;
26806;SDS011;14380;49.910;6.792;2022-08-19T06:19:22;15.15;;;13.38;;
26806;SDS011;14380;49.910;6.792;2022-08-19T06:21:51;15.57;;;14.00;;
26806;SDS011;14380;49.910;6.792;2022-08-19T06:24:19;16.13;;;14.52;;
26806;SDS011;14380;49.910;6.792;2022-08-19T06:26:49;17.08;;;15.27;;
26806;SDS011;14380;49.910;6.792;2022-08-19T06:29:20;15.93;;;14.35;;
26806;SDS011;14380;49.910;6.792;2022-08-19T06:31:49;18.30;;;16.42;;
26806;SDS011;14380;49.910;6.792;2022-08-19T06:34:18;18.08;;;16.17;;
26806;SDS011;14380;49.910;6.792;2022-08-19T06:36:46;16.80;;;15.02;;
26806;SDS011;14380;49.910;6.792;2022-08-19T06:39:15;18.38;;;15.65;;
26806;SDS011;14380;49.910;6.792;2022-08-19T06:41:45;17.13;;;15.52;;
26806;SDS011;14380;49.910;6.792;2022-08-19T06:44:13;16.63;;;15.13;;
26806;SDS011;14380;49.910;6.792;2022-08-19T06:46:42;19.63;;;16.00;;
26806;SDS011;14380;49.910;6.792;2022-08-19T06:49:09;17.40;;;15.25;;
26806;SDS011;14380;49.910;6.792;2022-08-19T06:51:39;18.02;;;15.45;;
26806;SDS011;14380;49.910;6.792;2022-08-19T06:54:07;12.55;;;10.90;;
26806;SDS011;14380;49.910;6.792;2022-08-19T06:56:33;11.90;;;10.80;;
26806;SDS011;14380;49.910;6.792;2022-08-19T06:59:01;10.60;;;9.60;;
26806;SDS011;14380;49.910;6.792;2022-08-19T07:01:28;14.25;;;11.93;;
26806;SDS011;14380;49.910;6.792;2022-08-19T07:03:56;13.15;;;11.70;;
26806;SDS011;14380;49.910;6.792;2022-08-19T07:06:23;17.63;;;15.98;;
26806;SDS011;14380;49.910;6.792;2022-08-19T07:08:50;19.58;;;16.70;;
26806;SDS011;14380;49.910;6.792;2022-08-19T07:11:17;16.30;;;14.60;;
26806;SDS011;14380;49.910;6.792;2022-08-19T07:13:46;14.88;;;13.38;;
26806;SDS011;14380;49.910;6.792;2022-08-19T07:16:15;16.45;;;14.80;;
26806;SDS011;14380;49.910;6.792;2022-08-19T07:18:44;13.75;;;12.45;;
26806;SDS011;14380;49.910;6.792;2022-08-19T07:21:14;16.35;;;13.68;;
26806;SDS011;14380;49.910;6.792;2022-08-19T07:23:42;16.00;;;14.50;;
26806;SDS011;14380;49.910;6.792;2022-08-19T07:26:10;16.90;;;15.25;;
26806;SDS011;14380;49.910;6.792;2022-08-19T07:28:38;16.85;;;15.15;;
26806;SDS011;14380;49.910;6.792;2022-08-19T07:31:05;17.23;;;15.52;;
26806;SDS011;14380;49.910;6.792;2022-08-19T07:33:32;16.33;;;14.73;;
26806;SDS011;14380;49.910;6.792;2022-08-19T07:36:02;16.02;;;14.45;;
26806;SDS011;14380;49.910;6.792;2022-08-19T07:38:32;16.98;;;12.05;;
26806;SDS011;14380;49.910;6.792;2022-08-19T07:41:00;13.55;;;12.25;;
26806;SDS011;14380;49.910;6.792;2022-08-19T07:43:28;14.00;;;12.45;;
26806;SDS011;14380;49.910;6.792;2022-08-19T07:45:55;12.95;;;11.80;;
26806;SDS011;14380;49.910;6.792;2022-08-19T07:48:24;12.35;;;11.15;;
26806;SDS011;14380;49.910;6.792;2022-08-19T07:50:52;14.07;;;12.73;;
26806;SDS011;14380;49.910;6.792;2022-08-19T07:53:20;14.38;;;11.80;;
26806;SDS011;14380;49.910;6.792;2022-08-19T07:55:48;12.20;;;11.00;;
26806;SDS011;14380;49.910;6.792;2022-08-19T07:58:16;12.43;;;11.00;;
26806;SDS011;14380;49.910;6.792;2022-08-19T08:00:46;11.07;;;9.48;;
26806;SDS011;14380;49.910;6.792;2022-08-19T08:03:15;10.25;;;8.40;;
26806;SDS011;14380;49.910;6.792;2022-08-19T08:05:43;11.07;;;8.90;;
26806;SDS011;14380;49.910;6.792;2022-08-19T08:08:27;12.93;;;9.68;;
26806;SDS011;14380;49.910;6.792;2022-08-19T08:11:15;8.13;;;7.40;;
26806;SDS011;14380;49.910;6.792;2022-08-19T08:13:44;12.18;;;7.65;;
26806;SDS011;14380;49.910;6.792;2022-08-19T08:16:10;9.52;;;7.85;;
26806;SDS011;14380;49.910;6.792;2022-08-19T08:18:37;8.85;;;7.95;;
26806;SDS011;14380;49.910;6.792;2022-08-19T08:21:07;10.90;;;9.13;;
26806;SDS011;14380;49.910;6.792;2022-08-19T08:23:34;15.52;;;9.60;;
26806;SDS011;14380;49.910;6.792;2022-08-19T08:26:01;12.32;;;8.55;;
26806;SDS011;14380;49.910;6.792;2022-08-19T08:28:31;12.18;;;8.02;;
26806;SDS011;14380;49.910;6.792;2022-08-19T08:30:57;11.88;;;10.35;;
26806;SDS011;14380;49.910;6.792;2022-08-19T08:33:27;13.50;;;12.10;;
26806;SDS011;14380;49.910;6.792;2022-08-19T08:35:55;14.88;;;11.27;;
26806;SDS011;14380;49.910;6.792;2022-08-19T08:38:21;14.30;;;11.88;;
26806;SDS011;14380;49.910;6.792;2022-08-19T08:40:49;19.17;;;17.17;;
26806;SDS011;14380;49.910;6.792;2022-08-19T08:43:21;18.80;;;16.10;;
26806;SDS011;14380;49.910;6.792;2022-08-19T08:45:55;15.50;;;13.98;;
26806;SDS011;14380;49.910;6.792;2022-08-19T08:48:30;15.90;;;14.25;;
26806;SDS011;14380;49.910;6.792;2022-08-19T08:51:03;17.02;;;15.23;;
26806;SDS011;14380;49.910;6.792;2022-08-19T08:53:31;17.38;;;15.13;;
26806;SDS011;14380;49.910;6.792;2022-08-19T08:56:00;19.05;;;15.05;;
26806;SDS011;14380;49.910;6.792;2022-08-19T08:58:31;20.17;;;15.13;;
26806;SDS011;14380;49.910;6.792;2022-08-19T09:01:08;16.55;;;13.05;;
26806;SDS011;14380;49.910;6.792;2022-08-19T09:03:36;20.50;;;14.05;;
26806;SDS011;14380;49.910;6.792;2022-08-19T09:06:06;18.27;;;15.23;;
26806;SDS011;14380;49.910;6.792;2022-08-19T09:08:43;14.82;;;13.40;;
26806;SDS011;14380;49.910;6.792;2022-08-19T09:11:15;14.18;;;12.75;;
26806;SDS011;14380;49.910;6.792;2022-08-19T09:13:54;15.13;;;13.13;;
26806;SDS011;14380;49.910;6.792;2022-08-19T09:16:35;13.75;;;12.35;;
26806;SDS011;14380;49.910;6.792;2022-08-19T09:19:05;14.15;;;12.70;;
26806;SDS011;14380;49.910;6.792;2022-08-19T09:21:33;15.77;;;11.20;;
26806;SDS011;14380;49.910;6.792;2022-08-19T09:24:01;12.98;;;10.80;;
26806;SDS011;14380;49.910;6.792;2022-08-19T09:26:29;13.70;;;12.30;;
26806;SDS011;14380;49.910;6.792;2022-08-19T09:28:57;12.82;;;11.50;;
26806;SDS011;14380;49.910;6.792;2022-08-19T09:31:25;12.90;;;11.60;;
26806;SDS011;14380;49.910;6.792;2022-08-19T09:33:56;14.40;;;12.90;;
26806;SDS011;14380;49.910;6.792;2022-08-19T09:36:23;12.20;;;10.98;;
26806;SDS011;14380;49.910;6.792;2022-08-19T09:38:51;11.00;;;9.77;;
26806;SDS011;14380;49.910;6.792;2022-08-19T09:41:19;13.73;;;12.20;;
26806;SDS011;14380;49.910;6.792;2022-08-19T09:43:48;12.20;;;10.80;;
26806;SDS011;14380;49.910;6.792;2022-08-19T09:46:17;11.52;;;10.20;;
26806;SDS011;14380;49.910;6.792;2022-08-19T09:48:46;11.23;;;9.95;;
26806;SDS011;14380;49.910;6.792;2022-08-19T09:51:15;11.80;;;10.65;;
26806;SDS011;14380;49.910;6.792;2022-08-19T09:53:45;11.88;;;10.57;;
26806;SDS011;14380;49.910;6.792;2022-08-19T09:56:12;8.93;;;8.02;;
26806;SDS011;14380;49.910;6.792;2022-08-19T09:58:39;11.88;;;10.10;;
26806;SDS011;14380;49.910;6.792;2022-08-19T10:01:08;9.40;;;8.50;;
26806;SDS011;14380;49.910;6.792;2022-08-19T10:03:35;10.00;;;8.80;;
26806;SDS011;14380;49.910;6.792;2022-08-19T10:06:03;9.95;;;8.65;;
26806;SDS011;14380;49.910;6.792;2022-08-19T10:08:33;10.27;;;9.18;;
26806;SDS011;14380;49.910;6.792;2022-08-19T10:11:01;15.73;;;10.80;;
26806;SDS011;14380;49.910;6.792;2022-08-19T10:13:29;11.48;;;8.95;;
26806;SDS011;14380;49.910;6.792;2022-08-19T10:16:02;9.30;;;8.40;;
26806;SDS011;14380;49.910;6.792;2022-08-19T10:18:31;10.50;;;9.20;;
26806;SDS011;14380;49.910;6.792;2022-08-19T10:21:02;10.80;;;9.77;;
26806;SDS011;14380;49.910;6.792;2022-08-19T10:23:35;11.35;;;9.73;;
26806;SDS011;14380;49.910;6.792;2022-08-19T10:26:03;10.93;;;9.82;;
26806;SDS011;14380;49.910;6.792;2022-08-19T10:28:31;12.13;;;10.45;;
26806;SDS011;14380;49.910;6.792;2022-08-19T10:30:58;10.63;;;7.88;;
26806;SDS011;14380;49.910;6.792;2022-08-19T10:33:29;9.80;;;8.50;;
26806;SDS011;14380;49.910;6.792;2022-08-19T10:35:58;12.27;;;8.52;;
26806;SDS011;14380;49.910;6.792;2022-08-19T10:38:25;11.55;;;9.73;;
26806;SDS011;14380;49.910;6.792;2022-08-19T10:40:55;10.30;;;7.95;;
26806;SDS011;14380;49.910;6.792;2022-08-19T10:43:22;8.35;;;7.47;;
26806;SDS011;14380;49.910;6.792;2022-08-19T10:45:51;12.88;;;10.70;;
26806;SDS011;14380;49.910;6.792;2022-08-19T10:48:20;13.35;;;11.80;;
26806;SDS011;14380;49.910;6.792;2022-08-19T10:50:46;15.73;;;13.05;;
26806;SDS011;14380;49.910;6.792;2022-08-19T10:53:30;12.30;;;10.45;;
26806;SDS011;14380;49.910;6.792;2022-08-19T10:55:58;17.63;;;12.52;;
26806;SDS011;14380;49.910;6.792;2022-08-19T10:58:42;14.35;;;12.63;;
26806;SDS011;14380;49.910;6.792;2022-08-19T11:01:09;14.80;;;13.15;;
26806;SDS011;14380;49.910;6.792;2022-08-19T11:03:36;15.82;;;12.30;;
26806;SDS011;14380;49.910;6.792;2022-08-19T11:06:04;16.02;;;11.30;;
26806;SDS011;14380;49.910;6.792;2022-08-19T11:08:32;12.65;;;9.93;;
26806;SDS011;14380;49.910;6.792;2022-08-19T11:11:02;11.27;;;9.55;;
26806;SDS011;14380;49.910;6.792;2022-08-19T11:13:30;15.15;;;9.63;;
26806;SDS011;14380;49.910;6.792;2022-08-19T11:15:58;12.35;;;9.23;;
26806;SDS011;14380;49.910;6.792;2022-08-19T11:18:26;10.00;;;8.88;;
26806;SDS011;14380;49.910;6.792;2022-08-19T11:20:53;11.57;;;8.10;;
26806;SDS011;14380;49.910;6.792;2022-08-19T11:23:20;11.65;;;9.73;;
26806;SDS011;14380;49.910;6.792;2022-08-19T11:25:46;9.38;;;8.48;;
26806;SDS011;14380;49.910;6.792;2022-08-19T11:28:14;10.48;;;9.45;;
26806;SDS011;14380;49.910;6.792;2022-08-19T11:30:41;12.70;;;9.02;;
26806;SDS011;14380;49.910;6.792;2022-08-19T11:33:08;10.43;;;8.55;;
26806;SDS011;14380;49.910;6.792;2022-08-19T11:35:38;10.23;;;9.02;;
26806;SDS011;14380;49.910;6.792;2022-08-19T11:38:05;9.68;;;8.52;;
26806;SDS011;14380;49.910;6.792;2022-08-19T11:40:32;13.70;;;10.27;;
26806;SDS011;14380;49.910;6.792;2022-08-19T11:42:59;10.25;;;9.25;;
26806;SDS011;14380;49.910;6.792;2022-08-19T11:45:27;27.80;;;9.98;;
26806;SDS011;14380;49.910;6.792;2022-08-19T11:47:54;11.48;;;10.27;;
26806;SDS011;14380;49.910;6.792;2022-08-19T11:50:21;14.45;;;9.13;;
26806;SDS011;14380;49.910;6.792;2022-08-19T11:52:49;11.07;;;8.07;;
26806;SDS011;14380;49.910;6.792;2022-08-19T11:55:16;15.43;;;8.68;;
26806;SDS011;14380;49.910;6.792;2022-08-19T11:57:44;9.50;;;8.25;;
26806;SDS011;14380;49.910;6.792;2022-08-19T12:00:12;9.82;;;8.63;;
26806;SDS011;14380;49.910;6.792;2022-08-19T12:02:41;10.57;;;8.50;;
26806;SDS011;14380;49.910;6.792;2022-08-19T12:05:08;11.52;;;8.77;;
26806;SDS011;14380;49.910;6.792;2022-08-19T12:07:36;14.07;;;8.65;;
26806;SDS011;14380;49.910;6.792;2022-08-19T12:10:03;8.82;;;7.93;;
26806;SDS011;14380;49.910;6.792;2022-08-19T12:12:30;9.45;;;8.48;;
26806;SDS011;14380;49.910;6.792;2022-08-19T12:14:56;9.05;;;7.68;;
26806;SDS011;14380;49.910;6.792;2022-08-19T12:17:24;7.53;;;6.80;;
26806;SDS011;14380;49.910;6.792;2022-08-19T12:19:53;10.90;;;7.10;;
26806;SDS011;14380;49.910;6.792;2022-08-19T12:22:20;8.45;;;7.50;;
26806;SDS011;14380;49.910;6.792;2022-08-19T12:24:47;9.43;;;7.28;;
26806;SDS011;14380;49.910;6.792;2022-08-19T12:27:15;7.50;;;6.70;;
26806;SDS011;14380;49.910;6.792;2022-08-19T12:29:42;7.68;;;6.88;;
26806;SDS011;14380;49.910;6.792;2022-08-19T12:32:09;13.70;;;6.28;;
26806;SDS011;14380;49.910;6.792;2022-08-19T12:34:35;8.38;;;6.32;;
26806;SDS011;14380;49.910;6.792;2022-08-19T12:37:05;8.05;;;6.53;;
26806;SDS011;14380;49.910;6.792;2022-08-19T12:39:36;6.88;;;6.18;;
26806;SDS011;14380;49.910;6.792;2022-08-19T12:42:04;6.38;;;5.43;;
26806;SDS011;14380;49.910;6.792;2022-08-19T12:44:32;9.75;;;6.88;;
26806;SDS011;14380;49.910;6.792;2022-08-19T12:46:59;9.15;;;7.57;;
26806;SDS011;14380;49.910;6.792;2022-08-19T12:49:26;7.63;;;6.82;;
26806;SDS011;14380;49.910;6.792;2022-08-19T12:51:54;7.10;;;6.38;;
26806;SDS011;14380;49.910;6.792;2022-08-19T12:54:22;8.02;;;6.22;;
26806;SDS011;14380;49.910;6.792;2022-08-19T12:56:48;9.75;;;7.38;;
26806;SDS011;14380;49.910;6.792;2022-08-19T12:59:15;7.65;;;6.85;;
26806;SDS011;14380;49.910;6.792;2022-08-19T13:01:43;7.50;;;6.57;;
26806;SDS011;14380;49.910;6.792;2022-08-19T13:04:10;7.47;;;6.43;;
26806;SDS011;14380;49.910;6.792;2022-08-19T13:06:37;6.32;;;5.70;;
26806;SDS011;14380;49.910;6.792;2022-08-19T13:09:04;7.55;;;6.85;;
26806;SDS011;14380;49.910;6.792;2022-08-19T13:11:32;7.75;;;6.95;;
26806;SDS011;14380;49.910;6.792;2022-08-19T13:13:59;8.07;;;7.20;;
26806;SDS011;14380;49.910;6.792;2022-08-19T13:16:27;9.07;;;6.68;;
26806;SDS011;14380;49.910;6.792;2022-08-19T13:18:54;7.43;;;6.65;;
26806;SDS011;14380;49.910;6.792;2022-08-19T13:21:22;11.50;;;8.38;;
26806;SDS011;14380;49.910;6.792;2022-08-19T13:23:51;10.68;;;8.55;;
26806;SDS011;14380;49.910;6.792;2022-08-19T13:26:19;11.05;;;8.07;;
26806;SDS011;14380;49.910;6.792;2022-08-19T13:28:48;10.48;;;7.50;;
26806;SDS011;14380;49.910;6.792;2022-08-19T13:31:34;8.60;;;7.70;;
26806;SDS011;14380;49.910;6.792;2022-08-19T13:34:28;11.15;;;7.80;;
26806;SDS011;14380;49.910;6.792;2022-08-19T13:36:57;7.88;;;7.13;;
26806;SDS011;14380;49.910;6.792;2022-08-19T13:39:24;11.18;;;7.10;;
26806;SDS011;14380;49.910;6.792;2022-08-19T13:41:50;8.57;;;6.32;;
26806;SDS011;14380;49.910;6.792;2022-08-19T13:44:19;7.00;;;6.30;;
26806;SDS011;14380;49.910;6.792;2022-08-19T13:46:46;7.43;;;6.15;;
26806;SDS011;14380;49.910;6.792;2022-08-19T13:49:16;6.93;;;6.30;;
26806;SDS011;14380;49.910;6.792;2022-08-19T13:51:43;8.55;;;6.15;;
26806;SDS011;14380;49.910;6.792;2022-08-19T13:54:10;7.35;;;6.43;;
26806;SDS011;14380;49.910;6.792;2022-08-19T13:56:39;8.18;;;6.55;;
26806;SDS011;14380;49.910;6.792;2022-08-19T13:59:07;10.43;;;6.88;;
26806;SDS011;14380;49.910;6.792;2022-08-19T14:01:35;7.45;;;6.70;;
26806;SDS011;14380;49.910;6.792;2022-08-19T14:04:03;7.53;;;6.72;;
26806;SDS011;14380;49.910;6.792;2022-08-19T14:06:30;11.55;;;6.68;;
26806;SDS011;14380;49.910;6.792;2022-08-19T14:08:57;7.22;;;6.53;;
26806;SDS011;14380;49.910;6.792;2022-08-19T14:11:24;8.23;;;6.20;;
26806;SDS011;14380;49.910;6.792;2022-08-19T14:13:52;6.80;;;6.15;;
26806;SDS011;14380;49.910;6.792;2022-08-19T14:16:18;8.93;;;6.45;;
26806;SDS011;14380;49.910;6.792;2022-08-19T14:18:48;6.50;;;5.90;;
26806;SDS011;14380;49.910;6.792;2022-08-19T14:21:15;6.80;;;5.85;;
26806;SDS011;14380;49.910;6.792;2022-08-19T14:23:43;10.75;;;5.63;;
26806;SDS011;14380;49.910;6.792;2022-08-19T14:26:11;7.22;;;5.15;;
26806;SDS011;14380;49.910;6.792;2022-08-19T14:28:39;6.22;;;5.63;;
26806;SDS011;14380;49.910;6.792;2022-08-19T14:31:06;5.88;;;5.07;;
26806;SDS011;14380;49.910;6.792;2022-08-19T14:33:33;6.30;;;4.72;;
26806;SDS011;14380;49.910;6.792;2022-08-19T14:36:02;4.95;;;4.50;;